createdAt,value
2019-05-22T00:02:21.496Z,12.30
2019-05-22T00:05:12.975Z,12.30
2019-05-22T00:07:43.865Z,12.30
2019-05-22T00:10:31.446Z,12.20
2019-05-22T00:13:00.781Z,12.20
2019-05-22T00:15:32.759Z,12.20
2019-05-22T00:18:03.784Z,12.20
2019-05-22T00:20:34.502Z,12.20
2019-05-22T00:23:07.813Z,12.20
2019-05-22T00:25:38.125Z,12.10
2019-05-22T00:28:10.010Z,12.10
2019-05-22T00:30:42.409Z,12.10
2019-05-22T00:33:15.741Z,12.10
2019-05-22T00:35:51.981Z,12.10
2019-05-22T00:38:25.329Z,12.00
2019-05-22T00:40:57.974Z,12.00
2019-05-22T00:43:34.398Z,12.00
2019-05-22T00:46:09.270Z,12.00
2019-05-22T00:48:42.890Z,12.00
2019-05-22T00:51:32.489Z,11.90
2019-05-22T00:54:04.470Z,11.90
2019-05-22T00:56:37.661Z,11.90
2019-05-22T00:59:25.229Z,11.90
2019-05-22T01:01:56.724Z,11.90
2019-05-22T01:04:37.717Z,11.90
2019-05-22T01:07:13.627Z,11.90
2019-05-22T01:09:44.509Z,11.80
2019-05-22T01:12:22.229Z,11.80
2019-05-22T01:14:54.789Z,11.70
2019-05-22T01:17:25.032Z,11.70
2019-05-22T01:19:54.611Z,11.70
2019-05-22T01:22:26.118Z,11.80
2019-05-22T01:24:57.512Z,11.80
2019-05-22T01:27:27.620Z,11.70
2019-05-22T01:30:00.106Z,11.70
2019-05-22T01:32:35.357Z,11.70
2019-05-22T01:35:07.488Z,11.70
2019-05-22T01:37:37.185Z,11.70
2019-05-22T01:40:15.900Z,11.70
2019-05-22T01:42:48.520Z,11.70
2019-05-22T01:45:23.536Z,11.70
2019-05-22T01:47:56.835Z,11.70
2019-05-22T01:50:39.273Z,11.70
2019-05-22T01:53:13.637Z,11.60
2019-05-22T01:55:46.133Z,11.60
2019-05-22T01:58:24.732Z,11.60
2019-05-22T02:00:55.060Z,11.60
2019-05-22T02:03:28.047Z,11.60
2019-05-22T02:05:58.211Z,11.60
2019-05-22T02:08:32.270Z,11.50
2019-05-22T02:11:03.107Z,11.60
2019-05-22T02:13:36.413Z,11.60
2019-05-22T02:16:07.144Z,11.50
2019-05-22T02:18:38.861Z,11.50
2019-05-22T02:21:11.813Z,11.50
2019-05-22T02:23:43.199Z,11.50
2019-05-22T02:26:15.415Z,11.50
2019-05-22T02:28:46.122Z,11.60
2019-05-22T02:31:17.994Z,11.60
2019-05-22T02:34:03.847Z,11.60
2019-05-22T02:36:36.278Z,11.60
2019-05-22T02:39:10.475Z,11.60
2019-05-22T02:41:45.010Z,11.60
2019-05-22T02:44:15.587Z,11.60
2019-05-22T02:46:47.655Z,11.70
2019-05-22T02:49:21.266Z,11.70
2019-05-22T02:51:50.751Z,11.80
2019-05-22T02:54:20.307Z,11.80
2019-05-22T02:56:52.381Z,11.90
2019-05-22T02:59:21.414Z,12.00
2019-05-22T03:01:50.436Z,12.00
2019-05-22T03:04:22.599Z,12.10
2019-05-22T03:06:53.233Z,12.20
2019-05-22T03:09:26.526Z,12.20
2019-05-22T03:12:01.880Z,12.30
2019-05-22T03:14:35.987Z,12.40
2019-05-22T03:17:08.037Z,12.40
2019-05-22T03:19:44.411Z,12.40
2019-05-22T03:22:28.400Z,12.50
2019-05-22T03:25:01.956Z,12.50
2019-05-22T03:27:45.839Z,12.60
2019-05-22T03:30:25.347Z,12.60
2019-05-22T03:32:59.636Z,12.70
2019-05-22T03:35:29.930Z,12.80
2019-05-22T03:38:02.013Z,13.00
2019-05-22T03:40:35.073Z,13.10
2019-05-22T03:43:07.165Z,13.30
2019-05-22T03:45:37.286Z,13.40
2019-05-22T03:48:07.160Z,13.50
2019-05-22T03:50:37.572Z,13.70
2019-05-22T03:53:16.848Z,13.90
2019-05-22T03:55:47.682Z,14.00
2019-05-22T03:58:18.484Z,14.00
2019-05-22T04:00:49.933Z,14.00
2019-05-22T04:03:23.400Z,13.90
2019-05-22T04:05:54.387Z,13.90
2019-05-22T04:08:27.122Z,13.90
2019-05-22T04:11:03.335Z,13.90
2019-05-22T04:13:33.285Z,14.00
2019-05-22T04:16:04.794Z,14.20
2019-05-22T04:18:35.056Z,14.30
2019-05-22T04:21:04.664Z,14.50
2019-05-22T04:23:34.796Z,14.60
2019-05-22T04:26:07.266Z,14.60
2019-05-22T04:28:41.956Z,14.70
2019-05-22T04:31:10.908Z,14.90
2019-05-22T04:33:42.708Z,15.10
2019-05-22T04:36:13.545Z,15.30
2019-05-22T04:38:42.600Z,15.60
2019-05-22T04:41:14.033Z,15.80
2019-05-22T04:43:42.956Z,15.90
2019-05-22T04:46:13.960Z,15.90
2019-05-22T04:48:47.863Z,15.90
2019-05-22T04:51:24.150Z,15.70
2019-05-22T04:53:57.248Z,15.50
2019-05-22T04:56:28.286Z,15.40
2019-05-22T04:59:03.457Z,15.30
2019-05-22T05:01:32.200Z,15.20
2019-05-22T05:04:02.671Z,15.10
2019-05-22T05:06:36.818Z,15.00
2019-05-22T05:09:09.504Z,14.90
2019-05-22T05:11:39.227Z,14.90
2019-05-22T05:14:09.246Z,14.90
2019-05-22T05:16:39.037Z,15.00
2019-05-22T05:19:09.758Z,15.00
2019-05-22T05:21:40.402Z,15.00
2019-05-22T05:24:11.733Z,15.10
2019-05-22T05:26:41.457Z,15.70
2019-05-22T05:29:18.220Z,16.60
2019-05-22T05:31:53.341Z,17.40
2019-05-22T05:34:31.556Z,17.40
2019-05-22T05:37:05.413Z,17.30
2019-05-22T05:39:42.339Z,16.80
2019-05-22T05:42:11.838Z,16.60
2019-05-22T05:44:42.184Z,16.30
2019-05-22T05:47:12.686Z,16.10
2019-05-22T05:49:42.546Z,16.10
2019-05-22T05:52:15.629Z,16.00
2019-05-22T05:54:50.655Z,15.70
2019-05-22T05:57:42.038Z,15.70
2019-05-22T06:00:14.808Z,15.60
2019-05-22T06:02:56.111Z,15.70
2019-05-22T06:05:16.910Z,15.80
2019-05-22T06:07:47.200Z,16.10
2019-05-22T06:10:28.328Z,16.10
2019-05-22T06:13:00.894Z,16.20
2019-05-22T06:15:51.142Z,17.20
2019-05-22T06:18:37.926Z,18.40
2019-05-22T06:21:09.386Z,18.90
2019-05-22T06:23:42.654Z,18.50
2019-05-22T06:26:15.745Z,18.00
2019-05-22T06:28:44.536Z,17.80
2019-05-22T06:31:17.836Z,17.70
2019-05-22T06:33:46.520Z,17.40
2019-05-22T06:36:18.087Z,17.10
2019-05-22T06:38:56.316Z,16.80
2019-05-22T06:41:27.921Z,16.80
2019-05-22T06:44:25.321Z,17.00
2019-05-22T06:46:58.841Z,17.10
2019-05-22T06:49:39.141Z,17.20
2019-05-22T06:52:09.613Z,17.10
2019-05-22T06:54:40.291Z,17.10
2019-05-22T06:57:12.777Z,17.20
2019-05-22T06:59:44.885Z,17.20
2019-05-22T07:02:16.420Z,17.10
2019-05-22T07:04:48.877Z,16.90
2019-05-22T07:07:18.476Z,16.80
2019-05-22T07:09:49.822Z,16.80
2019-05-22T07:12:20.605Z,16.80
2019-05-22T07:15:08.449Z,16.80
2019-05-22T07:17:38.681Z,16.70
2019-05-22T07:20:11.513Z,16.50
2019-05-22T07:22:41.445Z,16.40
2019-05-22T07:25:14.869Z,16.40
2019-05-22T07:27:44.493Z,16.40
2019-05-22T07:30:14.965Z,16.30
2019-05-22T07:32:43.888Z,16.30
2019-05-22T07:35:15.441Z,16.40
2019-05-22T07:37:47.589Z,16.50
2019-05-22T07:40:19.198Z,16.60
2019-05-22T07:42:49.756Z,16.80
2019-05-22T07:45:20.294Z,17.00
2019-05-22T07:47:53.032Z,17.10
2019-05-22T07:50:36.049Z,17.10
2019-05-22T07:53:07.462Z,17.00
2019-05-22T07:55:36.883Z,17.00
2019-05-22T07:58:12.006Z,17.00
2019-05-22T08:00:46.359Z,17.10
2019-05-22T08:03:17.643Z,17.00
2019-05-22T08:05:56.407Z,17.00
2019-05-22T08:08:29.161Z,17.10
2019-05-22T08:10:59.586Z,17.20
2019-05-22T08:13:29.094Z,17.30
2019-05-22T08:15:58.360Z,17.30
2019-05-22T08:18:30.709Z,17.20
2019-05-22T08:20:59.569Z,17.30
2019-05-22T08:23:28.382Z,17.20
2019-05-22T08:25:59.466Z,17.30
2019-05-22T08:28:32.178Z,17.30
2019-05-22T08:31:03.340Z,17.30
2019-05-22T08:33:39.040Z,17.30
2019-05-22T08:36:10.449Z,17.20
2019-05-22T08:38:45.016Z,17.20
2019-05-22T08:41:17.970Z,17.10
2019-05-22T08:44:13.496Z,17.00
2019-05-22T08:46:24.100Z,16.80
2019-05-22T08:48:55.766Z,16.70
2019-05-22T08:51:30.299Z,16.60
2019-05-22T08:54:00.625Z,16.60
2019-05-22T08:56:42.601Z,16.50
2019-05-22T08:59:19.331Z,16.40
2019-05-22T09:01:47.084Z,16.20
2019-05-22T09:04:18.253Z,16.30
2019-05-22T09:06:48.963Z,16.40
2019-05-22T09:09:20.521Z,16.50
2019-05-22T09:11:52.261Z,16.50
2019-05-22T09:14:21.762Z,16.70
2019-05-22T09:16:55.324Z,16.80
2019-05-22T09:19:24.495Z,16.90
2019-05-22T09:21:55.921Z,16.90
2019-05-22T09:24:28.746Z,16.70
2019-05-22T09:27:03.297Z,16.50
2019-05-22T09:29:38.952Z,16.10
2019-05-22T09:32:09.748Z,15.90
2019-05-22T09:34:39.428Z,15.70
2019-05-22T09:37:09.926Z,15.60
2019-05-22T09:39:39.667Z,15.60
2019-05-22T09:42:08.433Z,15.60
2019-05-22T09:44:41.371Z,15.60
2019-05-22T09:47:09.471Z,15.60
2019-05-22T09:49:40.159Z,15.70
2019-05-22T09:52:12.881Z,15.80
2019-05-22T09:54:44.707Z,16.00
2019-05-22T09:57:14.601Z,16.20
2019-05-22T09:59:45.054Z,16.30
2019-05-22T10:02:16.210Z,16.30
2019-05-22T10:04:48.342Z,16.30
2019-05-22T10:07:17.746Z,16.20
2019-05-22T10:09:48.604Z,16.20
2019-05-22T10:12:20.855Z,16.10
2019-05-22T10:14:49.704Z,16.00
2019-05-22T10:17:19.137Z,15.90
2019-05-22T10:19:49.324Z,15.90
2019-05-22T10:22:19.221Z,15.90
2019-05-22T10:24:50.521Z,15.90
2019-05-22T10:27:21.983Z,15.90
2019-05-22T10:29:52.160Z,16.00
2019-05-22T10:32:22.495Z,16.20
2019-05-22T10:34:53.123Z,16.30
2019-05-22T10:37:21.987Z,16.40
2019-05-22T10:39:51.170Z,16.60
2019-05-22T10:42:22.878Z,16.70
2019-05-22T10:44:52.221Z,16.80
2019-05-22T10:47:21.512Z,16.90
2019-05-22T10:49:52.953Z,16.70
2019-05-22T10:52:23.980Z,16.70
2019-05-22T10:54:56.098Z,16.50
2019-05-22T10:57:24.944Z,16.10
2019-05-22T10:59:56.282Z,16.00
2019-05-22T11:02:30.989Z,15.90
2019-05-22T11:05:04.057Z,16.00
2019-05-22T11:07:35.437Z,16.20
2019-05-22T11:10:07.185Z,16.50
2019-05-22T11:12:40.317Z,16.80
2019-05-22T11:15:13.520Z,17.20
2019-05-22T11:17:45.194Z,17.60
2019-05-22T11:20:16.704Z,18.20
2019-05-22T11:22:48.543Z,18.70
2019-05-22T11:25:18.519Z,19.20
2019-05-22T11:27:47.436Z,19.70
2019-05-22T11:30:17.968Z,19.60
2019-05-22T11:32:47.271Z,19.50
2019-05-22T11:35:19.057Z,19.20
2019-05-22T11:37:49.615Z,19.20
2019-05-22T11:40:20.555Z,19.20
2019-05-22T11:42:52.945Z,19.40
2019-05-22T11:45:24.016Z,19.60
2019-05-22T11:47:57.382Z,19.80
2019-05-22T11:50:28.775Z,19.80
2019-05-22T11:53:03.595Z,19.80
2019-05-22T11:55:44.757Z,19.80
2019-05-22T11:58:07.371Z,19.80
2019-05-22T12:00:36.216Z,19.80
2019-05-22T12:03:08.009Z,19.60
2019-05-22T12:05:38.474Z,19.30
2019-05-22T12:08:12.148Z,19.20
2019-05-22T12:10:44.456Z,19.20
2019-05-22T12:13:18.162Z,19.20
2019-05-22T12:15:47.115Z,19.20
2019-05-22T12:18:18.007Z,19.50
2019-05-22T12:20:48.235Z,19.70
2019-05-22T12:23:16.944Z,20.00
2019-05-22T12:25:48.228Z,20.30
2019-05-22T12:28:18.565Z,20.40
2019-05-22T12:30:49.612Z,20.50
2019-05-22T12:33:22.244Z,20.60
2019-05-22T12:35:51.615Z,20.50
2019-05-22T12:38:26.867Z,20.50
2019-05-22T12:40:55.776Z,20.20
2019-05-22T12:43:24.579Z,19.90
2019-05-22T12:45:53.204Z,19.70
2019-05-22T12:48:28.871Z,19.70
2019-05-22T12:51:01.866Z,19.80
2019-05-22T12:53:31.331Z,19.90
2019-05-22T12:56:02.065Z,19.90
2019-05-22T12:58:34.682Z,20.10
2019-05-22T13:01:05.845Z,20.20
2019-05-22T13:03:38.906Z,20.40
2019-05-22T13:06:09.224Z,20.30
2019-05-22T13:08:41.042Z,20.20
2019-05-22T13:11:10.593Z,20.20
2019-05-22T13:13:42.545Z,20.30
2019-05-22T13:16:13.472Z,20.30
2019-05-22T13:18:44.325Z,20.00
2019-05-22T13:21:16.584Z,19.30
2019-05-22T13:23:50.759Z,18.80
2019-05-22T13:26:19.819Z,18.40
2019-05-22T13:28:50.738Z,18.20
2019-05-22T13:31:19.978Z,18.10
2019-05-22T13:33:51.671Z,18.20
2019-05-22T13:36:21.156Z,18.20
2019-05-22T13:38:51.202Z,18.30
2019-05-22T13:41:25.344Z,18.50
2019-05-22T13:44:01.195Z,18.90
2019-05-22T13:46:31.617Z,19.20
2019-05-22T13:49:01.638Z,19.50
2019-05-22T13:51:30.986Z,20.00
2019-05-22T13:54:00.570Z,20.40
2019-05-22T13:56:30.497Z,20.80
2019-05-22T13:59:12.444Z,20.80
2019-05-22T14:01:41.230Z,20.80
2019-05-22T14:04:12.194Z,20.80
2019-05-22T14:06:42.521Z,20.50
2019-05-22T14:09:20.933Z,20.30
2019-05-22T14:11:46.715Z,20.10
2019-05-22T14:14:17.461Z,19.90
2019-05-22T14:16:49.375Z,19.80
2019-05-22T14:19:18.753Z,19.80
2019-05-22T14:21:51.488Z,19.80
2019-05-22T14:24:18.947Z,19.90
2019-05-22T14:26:48.945Z,19.90
2019-05-22T14:29:18.642Z,19.90
2019-05-22T14:31:47.394Z,20.00
2019-05-22T14:34:16.579Z,19.90
2019-05-22T14:36:46.593Z,19.80
2019-05-22T14:39:15.863Z,19.50
2019-05-22T14:41:44.753Z,19.30
2019-05-22T14:44:14.145Z,18.90
2019-05-22T14:46:44.091Z,18.60
2019-05-22T14:49:21.042Z,18.40
2019-05-22T14:51:50.289Z,18.30
2019-05-22T14:54:20.315Z,18.20
2019-05-22T14:56:51.569Z,18.10
2019-05-22T14:59:22.186Z,18.10
2019-05-22T15:01:52.301Z,18.10
2019-05-22T15:04:21.267Z,18.10
2019-05-22T15:06:50.683Z,18.10
2019-05-22T15:09:20.048Z,18.10
2019-05-22T15:11:49.095Z,18.20
2019-05-22T15:14:18.387Z,18.40
2019-05-22T15:16:47.140Z,18.60
2019-05-22T15:19:23.798Z,18.70
2019-05-22T15:21:52.750Z,18.80
2019-05-22T15:24:23.953Z,18.70
2019-05-22T15:26:55.628Z,18.60
2019-05-22T15:29:30.200Z,18.50
2019-05-22T15:32:02.891Z,18.50
2019-05-22T15:34:34.508Z,18.50
2019-05-22T15:37:06.042Z,18.60
2019-05-22T15:39:35.769Z,18.80
2019-05-22T15:42:07.970Z,19.00
2019-05-22T15:44:36.844Z,19.20
2019-05-22T15:47:06.693Z,19.40
2019-05-22T15:49:46.067Z,19.60
2019-05-22T15:52:16.619Z,19.80
2019-05-22T15:54:48.242Z,20.10
2019-05-22T15:57:17.649Z,20.30
2019-05-22T15:59:48.348Z,20.50
2019-05-22T16:02:22.023Z,20.60
2019-05-22T16:04:51.893Z,20.40
2019-05-22T16:07:21.530Z,20.10
2019-05-22T16:09:51.149Z,19.80
2019-05-22T16:12:21.924Z,19.50
2019-05-22T16:14:52.416Z,19.10
2019-05-22T16:17:24.601Z,18.90
2019-05-22T16:19:54.003Z,18.70
2019-05-22T16:22:25.234Z,18.50
2019-05-22T16:24:57.334Z,18.40
2019-05-22T16:27:27.919Z,18.30
2019-05-22T16:29:59.621Z,18.20
2019-05-22T16:32:29.134Z,18.20
2019-05-22T16:34:58.652Z,18.20
2019-05-22T16:37:27.488Z,18.20
2019-05-22T16:39:58.168Z,18.10
2019-05-22T16:42:27.821Z,17.90
2019-05-22T16:44:59.524Z,17.80
2019-05-22T16:47:33.406Z,17.80
2019-05-22T16:50:01.075Z,17.70
2019-05-22T16:52:31.585Z,17.60
2019-05-22T16:55:05.117Z,17.60
2019-05-22T16:57:34.615Z,17.50
2019-05-22T17:00:05.130Z,17.50
2019-05-22T17:02:38.826Z,17.40
2019-05-22T17:05:11.340Z,17.40
2019-05-22T17:07:41.947Z,17.30
2019-05-22T17:10:12.545Z,17.30
2019-05-22T17:12:46.878Z,17.40
2019-05-22T17:15:19.555Z,17.40
2019-05-22T17:17:49.060Z,17.40
2019-05-22T17:20:19.755Z,17.40
2019-05-22T17:22:50.982Z,17.40
2019-05-22T17:25:24.792Z,17.40
2019-05-22T17:27:54.315Z,17.40
2019-05-22T17:30:25.374Z,17.40
2019-05-22T17:32:54.466Z,17.50
2019-05-22T17:35:26.400Z,17.50
2019-05-22T17:37:57.991Z,17.50
2019-05-22T17:40:28.346Z,17.60
2019-05-22T17:42:58.336Z,17.70
2019-05-22T17:45:28.911Z,17.70
2019-05-22T17:47:58.078Z,17.70
2019-05-22T17:50:29.406Z,17.70
2019-05-22T17:53:00.760Z,17.70
2019-05-22T17:55:32.067Z,17.60
2019-05-22T17:58:04.100Z,17.60
2019-05-22T18:00:35.894Z,17.50
2019-05-22T18:03:07.930Z,17.50
2019-05-22T18:05:38.869Z,17.50
2019-05-22T18:08:10.219Z,17.50
2019-05-22T18:10:41.786Z,17.40
2019-05-22T18:13:13.007Z,17.40
2019-05-22T18:15:42.506Z,17.30
2019-05-22T18:18:11.708Z,17.20
2019-05-22T18:20:43.743Z,17.20
2019-05-22T18:23:11.256Z,17.10
2019-05-22T18:25:40.440Z,17.00
2019-05-22T18:28:13.320Z,17.00
2019-05-22T18:30:42.918Z,16.90
2019-05-22T18:33:13.609Z,16.80
2019-05-22T18:35:44.181Z,16.70
2019-05-22T18:38:13.095Z,16.60
2019-05-22T18:40:46.433Z,16.40
2019-05-22T18:43:18.721Z,16.30
2019-05-22T18:45:46.270Z,16.10
2019-05-22T18:48:16.356Z,16.00
2019-05-22T18:50:46.989Z,15.80
2019-05-22T18:53:16.150Z,15.80
2019-05-22T18:55:45.097Z,15.70
2019-05-22T18:58:16.939Z,15.60
2019-05-22T19:00:46.066Z,15.50
2019-05-22T19:03:15.454Z,15.40
2019-05-22T19:05:45.953Z,15.20
2019-05-22T19:08:16.308Z,15.00
2019-05-22T19:10:45.235Z,15.00
2019-05-22T19:13:14.798Z,14.80
2019-05-22T19:15:44.426Z,14.70
2019-05-22T19:18:15.249Z,14.50
2019-05-22T19:20:45.264Z,14.50
2019-05-22T19:23:15.013Z,14.40
2019-05-22T19:25:46.673Z,14.40
2019-05-22T19:28:15.437Z,14.40
2019-05-22T19:30:44.125Z,14.40
2019-05-22T19:33:15.325Z,14.30
2019-05-22T19:35:45.144Z,14.20
2019-05-22T19:38:27.768Z,14.10
2019-05-22T19:40:58.426Z,14.00
2019-05-22T19:43:28.281Z,14.00
2019-05-22T19:45:58.567Z,13.90
2019-05-22T19:48:28.282Z,13.90
2019-05-22T19:51:01.800Z,13.80
2019-05-22T19:53:31.193Z,13.80
2019-05-22T19:55:59.963Z,13.80
2019-05-22T19:58:35.014Z,13.80
2019-05-22T20:01:01.627Z,13.80
2019-05-22T20:03:32.185Z,13.90
2019-05-22T20:06:03.868Z,14.00
2019-05-22T20:08:36.308Z,14.00
2019-05-22T20:11:05.247Z,14.10
2019-05-22T20:13:35.230Z,14.00
2019-05-22T20:16:04.973Z,14.00
2019-05-22T20:18:36.387Z,13.90
2019-05-22T20:21:07.117Z,13.90
2019-05-22T20:23:39.499Z,13.90
2019-05-22T20:26:08.580Z,13.80
2019-05-22T20:28:39.086Z,13.70
2019-05-22T20:31:09.508Z,13.70
2019-05-22T20:33:38.460Z,13.60
2019-05-22T20:36:08.132Z,13.60
2019-05-22T20:38:37.371Z,13.60
2019-05-22T20:41:09.352Z,13.60
2019-05-22T20:43:40.186Z,13.60
2019-05-22T20:46:12.360Z,13.60
2019-05-22T20:48:42.101Z,13.50
2019-05-22T20:51:15.547Z,13.50
2019-05-22T20:53:53.987Z,13.40
2019-05-22T20:56:35.004Z,13.30
2019-05-22T20:59:11.169Z,13.30
2019-05-22T21:01:42.320Z,13.40
2019-05-22T21:04:14.141Z,13.60
2019-05-22T21:06:59.379Z,13.70
2019-05-22T21:09:23.940Z,13.70
2019-05-22T21:12:02.666Z,13.60
2019-05-22T21:14:33.227Z,13.60
2019-05-22T21:17:03.080Z,13.60
2019-05-22T21:19:33.470Z,13.70
2019-05-22T21:22:04.791Z,13.70
2019-05-22T21:24:37.001Z,13.70
2019-05-22T21:27:07.619Z,13.70
2019-05-22T21:29:40.209Z,13.70
2019-05-22T21:32:10.376Z,13.60
2019-05-22T21:34:46.955Z,13.60
2019-05-22T21:37:28.217Z,13.60
2019-05-22T21:40:11.487Z,13.50
2019-05-22T21:42:44.935Z,13.50
2019-05-22T21:45:22.684Z,13.50
2019-05-22T21:50:51.459Z,13.60
2019-05-22T21:53:23.943Z,13.60
2019-05-22T21:56:05.027Z,13.50
2019-05-22T21:58:32.008Z,13.40
2019-05-22T22:01:14.906Z,13.30
2019-05-22T22:04:02.454Z,13.20
2019-05-22T22:06:39.204Z,13.10
2019-05-22T22:09:09.480Z,13.10
2019-05-22T22:11:39.534Z,13.20
2019-05-22T22:14:10.591Z,13.30
2019-05-22T22:16:41.223Z,13.40
2019-05-22T22:19:11.682Z,13.40
2019-05-22T22:21:41.590Z,13.40
2019-05-22T22:24:12.025Z,13.40
2019-05-22T22:26:58.288Z,13.30
2019-05-22T22:29:29.616Z,13.30
2019-05-22T22:31:59.172Z,13.20
2019-05-22T22:34:47.085Z,13.10
2019-05-22T22:37:19.596Z,13.10
2019-05-22T22:39:54.208Z,13.00
2019-05-22T22:42:36.929Z,13.00
2019-05-22T22:45:09.927Z,13.00
2019-05-22T22:47:41.856Z,13.00
2019-05-22T22:50:11.427Z,13.00
2019-05-22T22:52:42.125Z,13.00
2019-05-22T22:55:14.652Z,12.90
2019-05-22T22:57:43.652Z,12.90
2019-05-22T23:00:17.756Z,12.90
2019-05-22T23:02:51.278Z,12.90
2019-05-22T23:05:22.509Z,12.90
2019-05-22T23:07:54.876Z,12.90
2019-05-22T23:10:25.925Z,12.80
2019-05-22T23:12:57.614Z,12.70
2019-05-22T23:15:28.620Z,12.60
2019-05-22T23:17:58.397Z,12.60
2019-05-22T23:20:26.433Z,12.50
2019-05-22T23:22:54.015Z,12.50
2019-05-22T23:25:23.654Z,12.50
2019-05-22T23:27:53.995Z,12.50
2019-05-22T23:30:27.370Z,12.50
2019-05-22T23:32:57.325Z,12.40
2019-05-22T23:35:28.340Z,12.20
2019-05-22T23:37:59.809Z,12.00
2019-05-22T23:40:32.005Z,12.00
2019-05-22T23:43:05.091Z,12.00
2019-05-22T23:45:38.308Z,12.00
2019-05-22T23:48:11.703Z,12.00
2019-05-22T23:50:52.247Z,12.00
2019-05-22T23:53:23.211Z,12.00
2019-05-22T23:55:54.796Z,12.00
2019-05-22T23:58:27.638Z,12.00
